16:46
Airports
History
Links
Donate
Help keep this website running!
PayPal
Bitcoin
This page is community maintained. The information is intended for PC simulator navigation or reference.
Always use approved charts for navigation.
SSIO
Candiota
Candiota (SSIO)
Candiota, Rio Grande do Sul, Brazil (96495)
(U)
Lat/Lng:31° 29' 39" S / 53° 41' 27" W
-31.494167 / -53.690833
Elevation:741'ft / 226mMSL
ID / ICAO:SSIO
Runways:1
Longest:04-22
Asphalt 901m / 2,957ft
Nearby Weather16:00 GMT 2017-12-14
Nearby weather at SBBG, Comandante Gustavo Kraemer located 25.9 nautical miles from SSIO
Altimeter: 29.88
Visibility: 6.2 statute miles
Wind: 12 knots (from 260°)
Temp: 30°c / 86°f
Humidity: 48.6%

METAR: SBBG 141600Z 26012KT 9999 FEW030 BKN100 30/18 Q1012

(Powered by phpweather)
Runway 04 / 22
Dimensions:901.2 x 22m 2957' x 72'ft
Surface:Asphalt
Runway 04 [A]Runway 22 [B]
Heading:023°TH 203°TH
Lat:
Lng:
31° 29' 52.42"S
53° 41' 33.74"W
31° 29' 25.58"S
53° 41' 20.26"W
User Notes and Comments
31° 29' 39" S / 53° 41' 27" W
Distance To
Airport ID:
Nearby Airports
(U) Comandante Gustavo Kraemer 25.9 NM
SBBG ( WX ) WNW 286°
4 Aeroclube 28.6 NM
SSCE WNW 293°
(U) Ana Paula 28.8 NM
SIAP SW 234°
4 Aeromis 30.8 NM
SJXA WNW 296°
(C) Vichadero 57.6 NM
SUVO WSW 250°
4 Refugio 60.7 NM
SSRQ NW 310°
(C) Arroio Grande 62.3 NM
SSAE SE 144°
VFR Chart
Flight Planning at SkyVector.com